Scout — WCZ5277 — position and weather

sailwx.info

Track history (hours):
 
Tides and Currents Weather Stations Pressure Air Temp Water Temp Dewpoint Dewpoint Depression Visibility Wind Speed Wind Dir Waves Ship Positions

Scout

Owner: ERGON MARINE & INDUSTRIAL SUPPLY, VICKSBURG, MS. More information available from US FCC via Universal Licensing System.

Last reported at 2017-Dec-13 12:16 UTC. Time now 2017-Dec-17 17:31 UTC.
Position N 32°20' W 090°54'.

Length 14 m.

Type: Towing. MMSI: 367402890.

Date/timePositionNaut miles runAvg speedWind from/ knotsBaromVisibWave heightAir tempDewpointWater temp
2017-Dec-13 12:16N 32°20' W 090°54'1 5.3
2017-Dec-13 12:01N 32°21' W 090°53'2 3.2
2017-Dec-13 11:31N 32°22' W 090°53'1 1.2
2017-Dec-13 11:01N 32°22' W 090°53'1 1.8
2017-Dec-13 10:31N 32°23' W 090°53'0 0.8
2017-Dec-13 10:01N 32°23' W 090°53'0 0.0
2017-Dec-13 09:31N 32°23' W 090°53'0 0.0
2017-Dec-13 09:01N 32°23' W 090°53'0 0.0
2017-Dec-13 08:31N 32°23' W 090°53'0 0.0
2017-Dec-13 08:00N 32°23' W 090°53'0 0.0
2017-Dec-13 07:31N 32°23' W 090°53'0 0.0
2017-Dec-13 07:01N 32°23' W 090°53'0 0.0
2017-Dec-13 06:31N 32°23' W 090°53'0 0.0
2017-Dec-13 06:01N 32°23' W 090°53'0 0.0
2017-Dec-13 05:30N 32°23' W 090°53'0 0.0
2017-Dec-13 05:01N 32°23' W 090°53'0 0.0
2017-Dec-13 04:31N 32°23' W 090°53'0 0.0
2017-Dec-13 04:01N 32°23' W 090°53'0 0.0
2017-Dec-13 03:31N 32°23' W 090°53'0 0.0
2017-Dec-13 03:01N 32°23' W 090°53'0 0.0
2017-Dec-13 02:31N 32°23' W 090°53'1 1.8
2017-Dec-13 02:01N 32°23' W 090°52'2 4.0
2017-Dec-13 01:31N 32°21' W 090°53'1 2.6
2017-Dec-13 01:01N 32°20' W 090°54'0 0.0
2017-Dec-13 00:31N 32°20' W 090°54'0 0.0
2017-Dec-13 00:01N 32°20' W 090°54'0 0.0
2017-Dec-12 23:31N 32°20' W 090°54'0 0.0
2017-Dec-12 23:01N 32°20' W 090°54'0 0.0
2017-Dec-12 22:31N 32°20' W 090°54'0 0.0
2017-Dec-12 22:01N 32°20' W 090°54'0 0.0
2017-Dec-12 21:31N 32°20' W 090°54'0 0.0
2017-Dec-12 21:01N 32°20' W 090°54'0 0.0
2017-Dec-12 20:30N 32°20' W 090°54'0 0.0
2017-Dec-12 20:00N 32°20' W 090°54'0 0.0
2017-Dec-12 19:30N 32°20' W 090°54'0 0.0
2017-Dec-12 19:00N 32°20' W 090°54'0 0.0
2017-Dec-12 18:30N 32°20' W 090°54'1 2.1
2017-Dec-12 18:00N 32°21' W 090°53'0 0.5
2017-Dec-12 17:30N 32°21' W 090°53'2 4.9
2017-Dec-12 17:00N 32°19' W 090°55'0 0.5
2017-Dec-12 16:30N 32°18' W 090°55'0 0.9
2017-Dec-12 16:00N 32°18' W 090°55'0 0.1
2017-Dec-12 15:30N 32°18' W 090°55'0 0.4
2017-Dec-12 15:00N 32°18' W 090°55'2 4.4
2017-Dec-12 14:30N 32°20' W 090°54'2 3.3
2017-Dec-12 14:00N 32°22' W 090°53'1 2.0
2017-Dec-12 13:30N 32°21' W 090°53'1 2.3
2017-Dec-12 13:00N 32°20' W 090°54'0 0.0
2017-Dec-12 11:42N 32°20' W 090°54'1 5.8
2017-Dec-12 11:31N 32°21' W 090°53'3 5.0
2017-Dec-12 11:00N 32°23' W 090°53'0 0.5
2017-Dec-12 10:30N 32°23' W 090°53'0 0.0
2017-Dec-12 10:01N 32°23' W 090°53'0 0.0
2017-Dec-12 09:31N 32°23' W 090°53'0 0.0
2017-Dec-12 09:01N 32°23' W 090°53'0 0.0
2017-Dec-12 08:31N 32°23' W 090°53'0 0.0
2017-Dec-12 08:00N 32°23' W 090°53'0 0.0
2017-Dec-12 07:30N 32°23' W 090°53'0 0.0
2017-Dec-12 07:00N 32°23' W 090°53'0 0.0
2017-Dec-12 06:30N 32°23' W 090°53'0 0.0
2017-Dec-12 06:00N 32°23' W 090°53'0 0.0
2017-Dec-12 05:30N 32°23' W 090°53'0 0.0
2017-Dec-12 05:00N 32°23' W 090°53'0 0.0
2017-Dec-12 04:30N 32°23' W 090°53'0 0.0
2017-Dec-12 04:00N 32°23' W 090°53'0 0.0
2017-Dec-12 03:31N 32°23' W 090°53'0 0.0
2017-Dec-12 03:00N 32°23' W 090°53'0 0.9
2017-Dec-12 02:30N 32°23' W 090°54'1 1.8
2017-Dec-12 02:00N 32°23' W 090°53'2 3.5
2017-Dec-12 01:31N 32°21' W 090°53'2 3.6
2017-Dec-12 01:00N 32°20' W 090°54'0 0.0
2017-Dec-11 11:46N 32°20' W 090°54'1 4.6
2017-Dec-11 11:30N 32°21' W 090°53'0 0.0
2017-Dec-11 11:00N 32°21' W 090°53'0 0.0
2017-Dec-11 10:30N 32°21' W 090°53'0 0.0
2017-Dec-11 10:00N 32°21' W 090°53'0 0.0
2017-Dec-11 09:30N 32°21' W 090°53'0 0.0
2017-Dec-11 09:00N 32°21' W 090°53'0 0.0
2017-Dec-11 08:30N 32°21' W 090°53'3 5.6
2017-Dec-11 08:00N 32°18' W 090°55'0 0.1
2017-Dec-11 07:30N 32°18' W 090°55'0 0.0
2017-Dec-11 07:00N 32°18' W 090°55'0 0.1
2017-Dec-11 06:30N 32°18' W 090°55'0 0.0
2017-Dec-11 06:00N 32°18' W 090°55'0 0.2
2017-Dec-11 05:30N 32°18' W 090°55'0 0.1
2017-Dec-11 05:00N 32°18' W 090°55'0 0.2
2017-Dec-11 04:30N 32°18' W 090°55'0 0.0
2017-Dec-11 04:00N 32°18' W 090°55'0 0.2
2017-Dec-11 03:30N 32°18' W 090°55'0 0.3
2017-Dec-11 03:00N 32°18' W 090°55'0 0.3
2017-Dec-11 02:30N 32°18' W 090°55'0 0.1
2017-Dec-11 02:00N 32°18' W 090°55'0 0.3
2017-Dec-11 01:30N 32°18' W 090°55'2 4.7
2017-Dec-11 01:00N 32°20' W 090°54'1 1.3
2017-Dec-11 00:30N 32°20' W 090°54'0 0.0
2017-Dec-10 00:35N 32°20' W 090°54'0 3.7
2017-Dec-10 00:30N 32°20' W 090°54'3 6.2
2017-Dec-10 00:00N 32°23' W 090°52'1 2.5
2017-Dec-09 23:30N 32°22' W 090°53'2 3.4
2017-Dec-09 23:00N 32°23' W 090°53'1 2.1
2017-Dec-09 22:30N 32°22' W 090°53'2 3.4
2017-Dec-09 22:00N 32°21' W 090°53'0 0.7
2017-Dec-09 21:30N 32°20' W 090°54'0 0.0
2017-Dec-09 21:00N 32°20' W 090°54'0 0.0
2017-Dec-09 20:30N 32°20' W 090°54'0 0.0
2017-Dec-09 20:00N 32°20' W 090°54'0 0.0
2017-Dec-09 19:30N 32°21' W 090°54'0 0.1
2017-Dec-09 19:00N 32°21' W 090°54'2 3.4
2017-Dec-09 18:30N 32°22' W 090°53'1 1.7
2017-Dec-09 18:00N 32°21' W 090°53'1 2.1
2017-Dec-09 17:30N 32°20' W 090°54'3 5.4
2017-Dec-09 17:00N 32°23' W 090°53'1 1.4
2017-Dec-09 16:30N 32°23' W 090°53'0 0.0
2017-Dec-09 16:00N 32°23' W 090°53'0 0.0
2017-Dec-09 15:30N 32°23' W 090°53'1 1.2
2017-Dec-09 15:00N 32°23' W 090°53'1 1.8
2017-Dec-09 14:30N 32°22' W 090°53'0 0.1
2017-Dec-09 14:00N 32°22' W 090°53'1 2.7
2017-Dec-09 13:30N 32°23' W 090°53'2 4.7
2017-Dec-09 13:00N 32°21' W 090°53'1 0.1
2017-Dec-08 23:45N 32°20' W 090°54'1 5.3
2017-Dec-08 23:30N 32°21' W 090°53'2 4.5
2017-Dec-08 23:00N 32°23' W 090°53'1 2.1
2017-Dec-08 22:30N 32°22' W 090°53'2 4.5
2017-Dec-08 22:00N 32°20' W 090°54'2 4.7
2017-Dec-08 21:30N 32°21' W 090°57'1 2.7
2017-Dec-08 21:00N 32°21' W 090°55'2 3.8
2017-Dec-08 20:30N 32°22' W 090°53'0 0.0
2017-Dec-08 20:00N 32°22' W 090°53'2 3.1
2017-Dec-08 19:30N 32°23' W 090°53'1 1.3
2017-Dec-08 19:00N 32°23' W 090°54'2 3.0
2017-Dec-08 18:30N 32°22' W 090°53'1 1.2
2017-Dec-08 18:00N 32°22' W 090°53'0 0.4
2017-Dec-08 17:30N 32°22' W 090°53'0 0.1
2017-Dec-08 17:00N 32°22' W 090°53'0 0.1
2017-Dec-08 16:30N 32°22' W 090°53'0 0.0
2017-Dec-08 16:00N 32°22' W 090°53'0 0.8
2017-Dec-08 15:30N 32°21' W 090°53'2 3.7
2017-Dec-08 15:00N 32°20' W 090°54'2 3.3
2017-Dec-08 14:30N 32°21' W 090°53'2 3.6
2017-Dec-08 14:00N 32°23' W 090°53'1 1.2
2017-Dec-08 13:30N 32°23' W 090°53'0 0.9
2017-Dec-08 13:00N 32°23' W 090°53'0 0.0
2017-Dec-08 12:07N 32°23' W 090°53'0 0.2
2017-Dec-08 12:01N 32°23' W 090°53'1 2.0
2017-Dec-08 11:31N 32°23' W 090°54'1 1.2
2017-Dec-08 11:01N 32°23' W 090°53'2 3.6
2017-Dec-08 10:31N 32°21' W 090°53'0 0.5
2017-Dec-08 10:01N 32°22' W 090°53'0 0.0
2017-Dec-08 09:31N 32°22' W 090°53'0 0.0
2017-Dec-08 09:00N 32°22' W 090°53'0 0.0
2017-Dec-08 08:31N 32°22' W 090°53'0 0.0
2017-Dec-08 08:01N 32°22' W 090°53'0 0.0
2017-Dec-08 07:31N 32°22' W 090°53'0 0.0
2017-Dec-08 07:00N 32°22' W 090°53'0 0.0
2017-Dec-08 06:31N 32°22' W 090°53'0 0.0
2017-Dec-08 06:01N 32°22' W 090°53'0 0.0
2017-Dec-08 05:31N 32°22' W 090°53'0 0.0
2017-Dec-08 05:01N 32°22' W 090°53'0 0.0
2017-Dec-08 04:30N 32°22' W 090°53'0 0.0
2017-Dec-08 04:01N 32°22' W 090°53'0 0.0
2017-Dec-08 03:31N 32°22' W 090°53'0 0.0
2017-Dec-08 03:01N 32°22' W 090°53'1 2.9
2017-Dec-08 02:30N 32°23' W 090°53'0 0.6
2017-Dec-08 02:01N 32°23' W 090°53'1 1.2
2017-Dec-08 01:31N 32°23' W 090°53'2 3.3
2017-Dec-08 01:01N 32°21' W 090°53'2 3.7
2017-Dec-08 00:31N 32°20' W 090°54'0 0.2
2017-Dec-08 00:01N 32°20' W 090°54'3 5.9
2017-Dec-07 23:31N 32°23' W 090°54'1 1.8
2017-Dec-07 23:01N 32°23' W 090°55'2 3.8
2017-Dec-07 22:31N 32°22' W 090°53'1 1.9
2017-Dec-07 22:00N 32°23' W 090°53'0 0.0
2017-Dec-07 21:31N 32°23' W 090°53'0 0.0
2017-Dec-07 21:00N 32°23' W 090°53'0 0.0
2017-Dec-07 20:31N 32°23' W 090°53'0 0.8
2017-Dec-07 20:00N 32°23' W 090°53'1 2.1
2017-Dec-07 19:30N 32°23' W 090°54'1 1.3
2017-Dec-07 19:01N 32°23' W 090°53'0 0.0
2017-Dec-07 18:30N 32°23' W 090°53'0 0.0
2017-Dec-07 18:00N 32°23' W 090°53'1 2.9
2017-Dec-07 17:30N 32°22' W 090°53'0 0.1
2017-Dec-07 17:01N 32°22' W 090°53'1 2.5
2017-Dec-07 16:30N 32°23' W 090°53'1 1.3
2017-Dec-07 16:00N 32°23' W 090°53'0 0.0
2017-Dec-07 15:31N 32°23' W 090°53'0 0.9
2017-Dec-07 15:01N 32°23' W 090°53'1 1.7
2017-Dec-07 14:30N 32°23' W 090°54'2 3.3
2017-Dec-07 14:01N 32°22' W 090°53'1 1.2
2017-Dec-07 13:31N 32°21' W 090°53'2 3.7
2017-Dec-07 13:00N 32°20' W 090°54'0 0.2
2017-Dec-07 12:31N 32°20' W 090°54'0 0.0
2017-Dec-07 12:00N 32°20' W 090°54'0 0.0
2017-Dec-07 11:30N 32°20' W 090°54'0 0.0
2017-Dec-07 11:00N 32°20' W 090°54'0 0.0
2017-Dec-07 10:30N 32°20' W 090°54'0 0.0
2017-Dec-07 10:00N 32°20' W 090°54'0 0.0
2017-Dec-07 09:30N 32°20' W 090°54'0 0.0
2017-Dec-07 09:00N 32°20' W 090°54'0 0.0
2017-Dec-07 08:30N 32°20' W 090°54'0 0.0
2017-Dec-07 08:00N 32°20' W 090°54'0 0.0
2017-Dec-07 07:30N 32°20' W 090°54'0 0.0
2017-Dec-07 07:00N 32°20' W 090°54'0 0.0
2017-Dec-07 06:30N 32°20' W 090°54'0 0.0
2017-Dec-07 06:00N 32°20' W 090°54'0 0.0
2017-Dec-07 05:30N 32°20' W 090°54'0 0.0
2017-Dec-07 05:00N 32°20' W 090°54'0 0.0
2017-Dec-07 04:30N 32°20' W 090°54'0 0.0
2017-Dec-07 04:00N 32°20' W 090°54'0 0.0
2017-Dec-07 03:30N 32°20' W 090°54'0 0.0
2017-Dec-07 03:00N 32°20' W 090°54'0 0.0
2017-Dec-07 02:30N 32°20' W 090°54'0 0.0
2017-Dec-07 02:00N 32°20' W 090°54'0 0.0
2017-Dec-07 01:30N 32°20' W 090°54'0 0.0
2017-Dec-07 01:00N 32°20' W 090°54'0 0.0
2017-Dec-07 00:30N 32°20' W 090°54'0 0.0
2017-Dec-07 00:00N 32°20' W 090°54'0 0.0
2017-Dec-06 23:30N 32°20' W 090°54'0 0.0
2017-Dec-06 23:00N 32°20' W 090°54'1 1.2
2017-Dec-06 22:30N 32°20' W 090°54'3 5.1
2017-Dec-06 22:00N 32°22' W 090°53'1 1.7
2017-Dec-06 21:30N 32°23' W 090°53'0 0.0
2017-Dec-06 21:00N 32°23' W 090°53'  
2017-Dec-04 10:30N 32°22' W 090°53'0 0.0
2017-Dec-04 10:01N 32°22' W 090°53'0 0.0
2017-Dec-04 09:31N 32°22' W 090°53'0 0.0
2017-Dec-04 09:01N 32°22' W 090°53'0 0.0
2017-Dec-04 08:31N 32°22' W 090°53'0 0.0
2017-Dec-04 08:01N 32°22' W 090°53'0 0.0
2017-Dec-04 07:31N 32°22' W 090°53'0 0.0
2017-Dec-04 07:01N 32°22' W 090°53'0 0.0
2017-Dec-04 06:30N 32°22' W 090°53'0 0.0
2017-Dec-04 06:00N 32°22' W 090°53'0 0.1
2017-Dec-04 05:31N 32°22' W 090°53'0 0.0
2017-Dec-04 05:01N 32°22' W 090°53'0 0.0
2017-Dec-04 04:31N 32°22' W 090°53'1 2.0
2017-Dec-04 04:01N 32°21' W 090°53'1 1.0
2017-Dec-04 03:31N 32°20' W 090°54'0 0.0
2017-Dec-04 03:01N 32°20' W 090°54'1 1.5
2017-Dec-04 02:30N 32°21' W 090°53'2 3.5
2017-Dec-04 02:01N 32°23' W 090°52'1 2.6
2017-Dec-04 01:31N 32°23' W 090°54'1 1.4
2017-Dec-04 01:00N 32°23' W 090°53'3 5.0
2017-Dec-04 00:31N 32°21' W 090°53'  
Track history (hours):
 
Tides and Currents Weather Stations Pressure Air Temp Water Temp Dewpoint Dewpoint Depression Visibility Wind Speed Wind Dir Waves Ship Positions

Scout

Owner: ERGON MARINE & INDUSTRIAL SUPPLY, VICKSBURG, MS. More information available from US FCC via Universal Licensing System.

Last reported at 2017-Dec-13 12:16 UTC. Time now 2017-Dec-17 17:31 UTC.
Position N 32°20' W 090°54'.

Length 14 m.

Type: Towing. MMSI: 367402890.

Date/timePositionNaut miles runAvg speedWind from/ knotsBaromVisibWave heightAir tempDewpointWater temp
2017-Dec-13 12:16N 32°20' W 090°54'1 5.3
2017-Dec-13 12:01N 32°21' W 090°53'2 3.2
2017-Dec-13 11:31N 32°22' W 090°53'1 1.2
2017-Dec-13 11:01N 32°22' W 090°53'1 1.8
2017-Dec-13 10:31N 32°23' W 090°53'0 0.8
2017-Dec-13 10:01N 32°23' W 090°53'0 0.0
2017-Dec-13 09:31N 32°23' W 090°53'0 0.0
2017-Dec-13 09:01N 32°23' W 090°53'0 0.0
2017-Dec-13 08:31N 32°23' W 090°53'0 0.0
2017-Dec-13 08:00N 32°23' W 090°53'0 0.0
2017-Dec-13 07:31N 32°23' W 090°53'0 0.0
2017-Dec-13 07:01N 32°23' W 090°53'0 0.0
2017-Dec-13 06:31N 32°23' W 090°53'0 0.0
2017-Dec-13 06:01N 32°23' W 090°53'0 0.0
2017-Dec-13 05:30N 32°23' W 090°53'0 0.0
2017-Dec-13 05:01N 32°23' W 090°53'0 0.0
2017-Dec-13 04:31N 32°23' W 090°53'0 0.0
2017-Dec-13 04:01N 32°23' W 090°53'0 0.0
2017-Dec-13 03:31N 32°23' W 090°53'0 0.0
2017-Dec-13 03:01N 32°23' W 090°53'0 0.0
2017-Dec-13 02:31N 32°23' W 090°53'1 1.8
2017-Dec-13 02:01N 32°23' W 090°52'2 4.0
2017-Dec-13 01:31N 32°21' W 090°53'1 2.6
2017-Dec-13 01:01N 32°20' W 090°54'0 0.0
2017-Dec-13 00:31N 32°20' W 090°54'0 0.0
2017-Dec-13 00:01N 32°20' W 090°54'0 0.0
2017-Dec-12 23:31N 32°20' W 090°54'0 0.0
2017-Dec-12 23:01N 32°20' W 090°54'0 0.0
2017-Dec-12 22:31N 32°20' W 090°54'0 0.0
2017-Dec-12 22:01N 32°20' W 090°54'0 0.0
2017-Dec-12 21:31N 32°20' W 090°54'0 0.0
2017-Dec-12 21:01N 32°20' W 090°54'0 0.0
2017-Dec-12 20:30N 32°20' W 090°54'0 0.0
2017-Dec-12 20:00N 32°20' W 090°54'0 0.0
2017-Dec-12 19:30N 32°20' W 090°54'0 0.0
2017-Dec-12 19:00N 32°20' W 090°54'0 0.0
2017-Dec-12 18:30N 32°20' W 090°54'1 2.1
2017-Dec-12 18:00N 32°21' W 090°53'0 0.5
2017-Dec-12 17:30N 32°21' W 090°53'2 4.9
2017-Dec-12 17:00N 32°19' W 090°55'0 0.5
2017-Dec-12 16:30N 32°18' W 090°55'0 0.9
2017-Dec-12 16:00N 32°18' W 090°55'0 0.1
2017-Dec-12 15:30N 32°18' W 090°55'0 0.4
2017-Dec-12 15:00N 32°18' W 090°55'2 4.4
2017-Dec-12 14:30N 32°20' W 090°54'2 3.3
2017-Dec-12 14:00N 32°22' W 090°53'1 2.0
2017-Dec-12 13:30N 32°21' W 090°53'1 2.3
2017-Dec-12 13:00N 32°20' W 090°54'0 0.0
2017-Dec-12 11:42N 32°20' W 090°54'1 5.8
2017-Dec-12 11:31N 32°21' W 090°53'3 5.0
2017-Dec-12 11:00N 32°23' W 090°53'0 0.5
2017-Dec-12 10:30N 32°23' W 090°53'0 0.0
2017-Dec-12 10:01N 32°23' W 090°53'0 0.0
2017-Dec-12 09:31N 32°23' W 090°53'0 0.0
2017-Dec-12 09:01N 32°23' W 090°53'0 0.0
2017-Dec-12 08:31N 32°23' W 090°53'0 0.0
2017-Dec-12 08:00N 32°23' W 090°53'0 0.0
2017-Dec-12 07:30N 32°23' W 090°53'0 0.0
2017-Dec-12 07:00N 32°23' W 090°53'0 0.0
2017-Dec-12 06:30N 32°23' W 090°53'0 0.0
2017-Dec-12 06:00N 32°23' W 090°53'0 0.0
2017-Dec-12 05:30N 32°23' W 090°53'0 0.0
2017-Dec-12 05:00N 32°23' W 090°53'0 0.0
2017-Dec-12 04:30N 32°23' W 090°53'0 0.0
2017-Dec-12 04:00N 32°23' W 090°53'0 0.0
2017-Dec-12 03:31N 32°23' W 090°53'0 0.0
2017-Dec-12 03:00N 32°23' W 090°53'0 0.9
2017-Dec-12 02:30N 32°23' W 090°54'1 1.8
2017-Dec-12 02:00N 32°23' W 090°53'2 3.5
2017-Dec-12 01:31N 32°21' W 090°53'2 3.6
2017-Dec-12 01:00N 32°20' W 090°54'0 0.0
2017-Dec-11 11:46N 32°20' W 090°54'1 4.6
2017-Dec-11 11:30N 32°21' W 090°53'0 0.0
2017-Dec-11 11:00N 32°21' W 090°53'0 0.0
2017-Dec-11 10:30N 32°21' W 090°53'0 0.0
2017-Dec-11 10:00N 32°21' W 090°53'0 0.0
2017-Dec-11 09:30N 32°21' W 090°53'0 0.0
2017-Dec-11 09:00N 32°21' W 090°53'0 0.0
2017-Dec-11 08:30N 32°21' W 090°53'3 5.6
2017-Dec-11 08:00N 32°18' W 090°55'0 0.1
2017-Dec-11 07:30N 32°18' W 090°55'0 0.0
2017-Dec-11 07:00N 32°18' W 090°55'0 0.1
2017-Dec-11 06:30N 32°18' W 090°55'0 0.0
2017-Dec-11 06:00N 32°18' W 090°55'0 0.2
2017-Dec-11 05:30N 32°18' W 090°55'0 0.1
2017-Dec-11 05:00N 32°18' W 090°55'0 0.2
2017-Dec-11 04:30N 32°18' W 090°55'0 0.0
2017-Dec-11 04:00N 32°18' W 090°55'0 0.2
2017-Dec-11 03:30N 32°18' W 090°55'0 0.3
2017-Dec-11 03:00N 32°18' W 090°55'0 0.3
2017-Dec-11 02:30N 32°18' W 090°55'0 0.1
2017-Dec-11 02:00N 32°18' W 090°55'0 0.3
2017-Dec-11 01:30N 32°18' W 090°55'2 4.7
2017-Dec-11 01:00N 32°20' W 090°54'1 1.3
2017-Dec-11 00:30N 32°20' W 090°54'0 0.0
2017-Dec-10 00:35N 32°20' W 090°54'0 3.7
2017-Dec-10 00:30N 32°20' W 090°54'3 6.2
2017-Dec-10 00:00N 32°23' W 090°52'1 2.5
2017-Dec-09 23:30N 32°22' W 090°53'2 3.4
2017-Dec-09 23:00N 32°23' W 090°53'1 2.1
2017-Dec-09 22:30N 32°22' W 090°53'2 3.4
2017-Dec-09 22:00N 32°21' W 090°53'0 0.7
2017-Dec-09 21:30N 32°20' W 090°54'0 0.0
2017-Dec-09 21:00N 32°20' W 090°54'0 0.0
2017-Dec-09 20:30N 32°20' W 090°54'0 0.0
2017-Dec-09 20:00N 32°20' W 090°54'0 0.0
2017-Dec-09 19:30N 32°21' W 090°54'0 0.1
2017-Dec-09 19:00N 32°21' W 090°54'2 3.4
2017-Dec-09 18:30N 32°22' W 090°53'1 1.7
2017-Dec-09 18:00N 32°21' W 090°53'1 2.1
2017-Dec-09 17:30N 32°20' W 090°54'3 5.4
2017-Dec-09 17:00N 32°23' W 090°53'1 1.4
2017-Dec-09 16:30N 32°23' W 090°53'0 0.0
2017-Dec-09 16:00N 32°23' W 090°53'0 0.0
2017-Dec-09 15:30N 32°23' W 090°53'1 1.2
2017-Dec-09 15:00N 32°23' W 090°53'1 1.8
2017-Dec-09 14:30N 32°22' W 090°53'0 0.1
2017-Dec-09 14:00N 32°22' W 090°53'1 2.7
2017-Dec-09 13:30N 32°23' W 090°53'2 4.7
2017-Dec-09 13:00N 32°21' W 090°53'1 0.1
2017-Dec-08 23:45N 32°20' W 090°54'1 5.3
2017-Dec-08 23:30N 32°21' W 090°53'2 4.5
2017-Dec-08 23:00N 32°23' W 090°53'1 2.1
2017-Dec-08 22:30N 32°22' W 090°53'2 4.5
2017-Dec-08 22:00N 32°20' W 090°54'2 4.7
2017-Dec-08 21:30N 32°21' W 090°57'1 2.7
2017-Dec-08 21:00N 32°21' W 090°55'2 3.8
2017-Dec-08 20:30N 32°22' W 090°53'0 0.0
2017-Dec-08 20:00N 32°22' W 090°53'2 3.1
2017-Dec-08 19:30N 32°23' W 090°53'1 1.3
2017-Dec-08 19:00N 32°23' W 090°54'2 3.0
2017-Dec-08 18:30N 32°22' W 090°53'1 1.2
2017-Dec-08 18:00N 32°22' W 090°53'0 0.4
2017-Dec-08 17:30N 32°22' W 090°53'0 0.1
2017-Dec-08 17:00N 32°22' W 090°53'0 0.1
2017-Dec-08 16:30N 32°22' W 090°53'0 0.0
2017-Dec-08 16:00N 32°22' W 090°53'0 0.8
2017-Dec-08 15:30N 32°21' W 090°53'2 3.7
2017-Dec-08 15:00N 32°20' W 090°54'2 3.3
2017-Dec-08 14:30N 32°21' W 090°53'2 3.6
2017-Dec-08 14:00N 32°23' W 090°53'1 1.2
2017-Dec-08 13:30N 32°23' W 090°53'0 0.9
2017-Dec-08 13:00N 32°23' W 090°53'0 0.0
2017-Dec-08 12:07N 32°23' W 090°53'0 0.2
2017-Dec-08 12:01N 32°23' W 090°53'1 2.0
2017-Dec-08 11:31N 32°23' W 090°54'1 1.2
2017-Dec-08 11:01N 32°23' W 090°53'2 3.6
2017-Dec-08 10:31N 32°21' W 090°53'0 0.5
2017-Dec-08 10:01N 32°22' W 090°53'0 0.0
2017-Dec-08 09:31N 32°22' W 090°53'0 0.0
2017-Dec-08 09:00N 32°22' W 090°53'0 0.0
2017-Dec-08 08:31N 32°22' W 090°53'0 0.0
2017-Dec-08 08:01N 32°22' W 090°53'0 0.0
2017-Dec-08 07:31N 32°22' W 090°53'0 0.0
2017-Dec-08 07:00N 32°22' W 090°53'0 0.0
2017-Dec-08 06:31N 32°22' W 090°53'0 0.0
2017-Dec-08 06:01N 32°22' W 090°53'0 0.0
2017-Dec-08 05:31N 32°22' W 090°53'0 0.0
2017-Dec-08 05:01N 32°22' W 090°53'0 0.0
2017-Dec-08 04:30N 32°22' W 090°53'0 0.0
2017-Dec-08 04:01N 32°22' W 090°53'0 0.0
2017-Dec-08 03:31N 32°22' W 090°53'0 0.0
2017-Dec-08 03:01N 32°22' W 090°53'1 2.9
2017-Dec-08 02:30N 32°23' W 090°53'0 0.6
2017-Dec-08 02:01N 32°23' W 090°53'1 1.2
2017-Dec-08 01:31N 32°23' W 090°53'2 3.3
2017-Dec-08 01:01N 32°21' W 090°53'2 3.7
2017-Dec-08 00:31N 32°20' W 090°54'0 0.2
2017-Dec-08 00:01N 32°20' W 090°54'3 5.9
2017-Dec-07 23:31N 32°23' W 090°54'1 1.8
2017-Dec-07 23:01N 32°23' W 090°55'2 3.8
2017-Dec-07 22:31N 32°22' W 090°53'1 1.9
2017-Dec-07 22:00N 32°23' W 090°53'0 0.0
2017-Dec-07 21:31N 32°23' W 090°53'0 0.0
2017-Dec-07 21:00N 32°23' W 090°53'0 0.0
2017-Dec-07 20:31N 32°23' W 090°53'0 0.8
2017-Dec-07 20:00N 32°23' W 090°53'1 2.1
2017-Dec-07 19:30N 32°23' W 090°54'1 1.3
2017-Dec-07 19:01N 32°23' W 090°53'0 0.0
2017-Dec-07 18:30N 32°23' W 090°53'0 0.0
2017-Dec-07 18:00N 32°23' W 090°53'1 2.9
2017-Dec-07 17:30N 32°22' W 090°53'0 0.1
2017-Dec-07 17:01N 32°22' W 090°53'1 2.5
2017-Dec-07 16:30N 32°23' W 090°53'1 1.3
2017-Dec-07 16:00N 32°23' W 090°53'0 0.0
2017-Dec-07 15:31N 32°23' W 090°53'0 0.9
2017-Dec-07 15:01N 32°23' W 090°53'1 1.7
2017-Dec-07 14:30N 32°23' W 090°54'2 3.3
2017-Dec-07 14:01N 32°22' W 090°53'1 1.2
2017-Dec-07 13:31N 32°21' W 090°53'2 3.7
2017-Dec-07 13:00N 32°20' W 090°54'0 0.2
2017-Dec-07 12:31N 32°20' W 090°54'0 0.0
2017-Dec-07 12:00N 32°20' W 090°54'0 0.0
2017-Dec-07 11:30N 32°20' W 090°54'0 0.0
2017-Dec-07 11:00N 32°20' W 090°54'0 0.0
2017-Dec-07 10:30N 32°20' W 090°54'0 0.0
2017-Dec-07 10:00N 32°20' W 090°54'0 0.0
2017-Dec-07 09:30N 32°20' W 090°54'0 0.0
2017-Dec-07 09:00N 32°20' W 090°54'0 0.0
2017-Dec-07 08:30N 32°20' W 090°54'0 0.0
2017-Dec-07 08:00N 32°20' W 090°54'0 0.0
2017-Dec-07 07:30N 32°20' W 090°54'0 0.0
2017-Dec-07 07:00N 32°20' W 090°54'0 0.0
2017-Dec-07 06:30N 32°20' W 090°54'0 0.0
2017-Dec-07 06:00N 32°20' W 090°54'0 0.0
2017-Dec-07 05:30N 32°20' W 090°54'0 0.0
2017-Dec-07 05:00N 32°20' W 090°54'0 0.0
2017-Dec-07 04:30N 32°20' W 090°54'0 0.0
2017-Dec-07 04:00N 32°20' W 090°54'0 0.0
2017-Dec-07 03:30N 32°20' W 090°54'0 0.0
2017-Dec-07 03:00N 32°20' W 090°54'0 0.0
2017-Dec-07 02:30N 32°20' W 090°54'0 0.0
2017-Dec-07 02:00N 32°20' W 090°54'0 0.0
2017-Dec-07 01:30N 32°20' W 090°54'0 0.0
2017-Dec-07 01:00N 32°20' W 090°54'0 0.0
2017-Dec-07 00:30N 32°20' W 090°54'0 0.0
2017-Dec-07 00:00N 32°20' W 090°54'0 0.0
2017-Dec-06 23:30N 32°20' W 090°54'0 0.0
2017-Dec-06 23:00N 32°20' W 090°54'1 1.2
2017-Dec-06 22:30N 32°20' W 090°54'3 5.1
2017-Dec-06 22:00N 32°22' W 090°53'1 1.7
2017-Dec-06 21:30N 32°23' W 090°53'0 0.0
2017-Dec-06 21:00N 32°23' W 090°53'  
2017-Dec-04 10:30N 32°22' W 090°53'0 0.0
2017-Dec-04 10:01N 32°22' W 090°53'0 0.0
2017-Dec-04 09:31N 32°22' W 090°53'0 0.0
2017-Dec-04 09:01N 32°22' W 090°53'0 0.0
2017-Dec-04 08:31N 32°22' W 090°53'0 0.0
2017-Dec-04 08:01N 32°22' W 090°53'0 0.0
2017-Dec-04 07:31N 32°22' W 090°53'0 0.0
2017-Dec-04 07:01N 32°22' W 090°53'0 0.0
2017-Dec-04 06:30N 32°22' W 090°53'0 0.0
2017-Dec-04 06:00N 32°22' W 090°53'0 0.1
2017-Dec-04 05:31N 32°22' W 090°53'0 0.0
2017-Dec-04 05:01N 32°22' W 090°53'0 0.0
2017-Dec-04 04:31N 32°22' W 090°53'1 2.0
2017-Dec-04 04:01N 32°21' W 090°53'1 1.0
2017-Dec-04 03:31N 32°20' W 090°54'0 0.0
2017-Dec-04 03:01N 32°20' W 090°54'1 1.5
2017-Dec-04 02:30N 32°21' W 090°53'2 3.5
2017-Dec-04 02:01N 32°23' W 090°52'1 2.6
2017-Dec-04 01:31N 32°23' W 090°54'1 1.4
2017-Dec-04 01:00N 32°23' W 090°53'3 5.0
2017-Dec-04 00:31N 32°21' W 090°53'  

Dump ship's entire track history